Tabapora, Brazil
Current Conditions -  °F | °C
As of 6:00 PM on Wednesday 17 Dec 2014 (Local Time) from SBAT Reporting Station
Few Clouds Few Clouds  
Wind Chill: 88°   Ceiling: Unl
Heat Index: 94°   Visibility: 6mi
Dew Point: 72°   Wind: 6mph
Humidity: 58%   Direction: 300°WNW
Pressure: 29.8"   Gusts: NA
Location:  11.23°S, 56.81°W
Report Text: SBAT 172100Z 30005KT 9999 FEW030TCU 31/22 Q1009
Loading
Personal Weather Stations






























Interactive Weather Map New forecast layout! Learn more

10-Day Weather Forecast

Advertisements
Track Severe Weather on mobile